SBOSBO OAK / KOAK
Speedbird OnlineSpeedbird Online OAK / KOAK

Metropolitan Oakland International Airport
16:08 21.9°C

Location Oakland, United States
Latitude: 37.721298
Longitude: -122.221001
Local Time 16:08 on 21 Jun 2024
UTC -7 hours (America/Los_Angeles)
Currency £1 equals USD 1.27
METAR KOAK 212253Z 30013KT 10SM CLR 21/11 A2980 RMK AO2 SLP090 T02060106
TAF KOAK 211734Z 2118/2224 27006KT P6SM SCT007 FM212100 30012KT P6SM SKC FM220500 31006KT P6SM SCT007 FM221700 VRB05KT P6SM SKC FM222200 27011KT P6SM SKC
Weather As Of 21 Jun 2024 16:08
Description Clear sky
Wind 35 km/h from North-West (310°)
Cloud Cover 0%
Precipitation Rain: none, Snow: none
Sunrise 05:47
Sunset 20:34
Lounges Escape Lounge, Terminal 1
Web Airport Website | Wikipedia
Codes IATA: OAK
ICAO: KOAK
Altitude 3 Meter / 9 Feet
Distance 8,624 KM / 5,359 Miles
from London.
Runways
RunwayLength (m)Surface
10L1664Asphalt
10R1894Asphalt
123048Asphalt
151029Asphalt
28L1894Asphalt
28R1664Asphalt
303048Asphalt
331029Asphalt
Radio
TypeDescriptionFrequency
APPNORCAL APP125.35
APPNORCAL APP31.76
ATISATIS133.775
CLDCLNC DEL121.1
DEPNORCAL DEP120.9
GNDGND121.75
RDOOAKLAND RDO122
TWROAKLAND TWR118.3
UNICUNICOM122.95
Live ATC



Support Speedbird Online

© 2017-2024 Speedbird Online